Pigeon Point — 2DBR8 — position and weather

sailwx.info

Track history (hours):
 
Tides and Currents Weather Stations Pressure Air Temp Water Temp Dewpoint Dewpoint Depression Visibility Wind Speed Wind Dir Waves Ship Positions

Pigeon Point

Last reported at 2017-Sep-29 04:47 UTC. Time now 2017-Oct-20 16:14 UTC.
Position N 29°58' W 090°18'.
Warning: this ship's position is 21 days out of date.

Length 188 m; draft 10 m.

Type: Tanker. MMSI: 235077605.

Date/timePositionNaut miles runAvg speedWind from/ knotsBaromVisibWave heightAir tempDewpointWater temp
2017-Sep-29 04:47N 29°58' W 090°18'0 0.4
2017-Sep-29 04:24N 29°58' W 090°18'3 5.6
2017-Sep-29 03:56N 29°56' W 090°20'  
2017-Sep-22 00:15N 29°45' W 095°06'0 0.9
2017-Sep-22 00:00N 29°45' W 095°06'2 4.3
2017-Sep-21 23:30N 29°44' W 095°04'3 6.1
2017-Sep-21 23:00N 29°42' W 095°01'4 8.1
2017-Sep-21 22:30N 29°39' W 094°58'5 9.7
2017-Sep-21 22:00N 29°35' W 094°56'510.6
2017-Sep-21 21:30N 29°30' W 094°52'510.5
2017-Sep-21 21:00N 29°26' W 094°50'510.6
2017-Sep-21 20:30N 29°21' W 094°47'  
Track history (hours):
 
Tides and Currents Weather Stations Pressure Air Temp Water Temp Dewpoint Dewpoint Depression Visibility Wind Speed Wind Dir Waves Ship Positions

Pigeon Point

Last reported at 2017-Sep-29 04:47 UTC. Time now 2017-Oct-20 16:14 UTC.
Position N 29°58' W 090°18'.
Warning: this ship's position is 21 days out of date.

Length 188 m; draft 10 m.

Type: Tanker. MMSI: 235077605.

Date/timePositionNaut miles runAvg speedWind from/ knotsBaromVisibWave heightAir tempDewpointWater temp
2017-Sep-29 04:47N 29°58' W 090°18'0 0.4
2017-Sep-29 04:24N 29°58' W 090°18'3 5.6
2017-Sep-29 03:56N 29°56' W 090°20'  
2017-Sep-22 00:15N 29°45' W 095°06'0 0.9
2017-Sep-22 00:00N 29°45' W 095°06'2 4.3
2017-Sep-21 23:30N 29°44' W 095°04'3 6.1
2017-Sep-21 23:00N 29°42' W 095°01'4 8.1
2017-Sep-21 22:30N 29°39' W 094°58'5 9.7
2017-Sep-21 22:00N 29°35' W 094°56'510.6
2017-Sep-21 21:30N 29°30' W 094°52'510.5
2017-Sep-21 21:00N 29°26' W 094°50'510.6
2017-Sep-21 20:30N 29°21' W 094°47'  

Dump ship's entire track history